METAR Data
IDs: Format: Raw Decoded Include TAF

Data at: 0236 UTC 25 Feb 2021

LFPM 250230Z AUTO 14004KT CAVOK 08/06 Q1026